Time;durP1;ratioP1;P1;durP2;ratioP2;P2;SDS_P1;SDS_P2;PMS_P1;PMS_P2;Temp;Humidity;BMP_temperature;BMP_pressure;BME280_temperature;BME280_humidity;BME280_pressure;Samples;Min_cycle;Max_cycle;Signal;HPM_P1;HPM_P2
2021/01/11 00:00:01;;;;;;;5.43;1.83;;;;;;;4.97;86.30;101478.72;4976135;28;20034;-48
2021/01/11 00:02:27;;;;;;;5.47;1.27;;;;;;;4.95;86.26;101489.13;4990729;28;20045;-49
2021/01/11 00:04:54;;;;;;;5.47;1.88;;;;;;;4.96;86.12;101476.25;4982488;28;20051;-52
2021/01/11 00:07:20;;;;;;;5.13;1.83;;;;;;;4.96;86.42;101488.03;4971846;28;20412;-49
2021/01/11 00:09:46;;;;;;;4.78;1.58;;;;;;;4.96;86.30;101479.81;4976773;28;20113;-47
2021/01/11 00:12:13;;;;;;;10.70;1.92;;;;;;;4.96;86.11;101473.50;4973393;28;20071;-49
2021/01/11 00:14:39;;;;;;;6.60;2.08;;;;;;;4.95;85.91;101478.16;4972188;28;20051;-51
2021/01/11 00:17:05;;;;;;;8.50;2.85;;;;;;;4.96;86.13;101468.00;4972013;28;20481;-48
2021/01/11 00:19:32;;;;;;;3.10;1.48;;;;;;;4.95;86.10;101475.41;4971548;28;20134;-48
2021/01/11 00:21:59;;;;;;;9.30;1.83;;;;;;;4.95;86.07;101472.66;4971579;28;20385;-52
2021/01/11 00:24:25;;;;;;;3.17;1.42;;;;;;;4.92;86.29;101462.31;4972954;28;20129;-47
2021/01/11 00:26:53;;;;;;;4.80;1.48;;;;;;;4.91;86.40;101460.66;4992127;28;20058;-48
2021/01/11 00:29:20;;;;;;;4.55;1.20;;;;;;;4.89;86.48;101462.88;4992358;28;20444;-48
2021/01/11 00:31:46;;;;;;;2.80;1.20;;;;;;;4.90;86.04;101459.00;4992211;28;20077;-51
2021/01/11 00:34:13;;;;;;;2.60;1.23;;;;;;;4.92;86.30;101459.56;4978640;28;20142;-51
2021/01/11 00:36:39;;;;;;;4.07;1.90;;;;;;;4.94;86.34;101438.13;4972817;28;20098;-47
2021/01/11 00:39:06;;;;;;;3.38;1.45;;;;;;;4.95;86.23;101449.91;4972477;28;20492;-51
2021/01/11 00:41:32;;;;;;;5.90;1.20;;;;;;;4.97;86.21;101447.69;4972532;28;20058;-48
2021/01/11 00:43:59;;;;;;;6.50;1.25;;;;;;;4.96;85.99;101451.53;4992190;28;20078;-50
2021/01/11 00:46:29;;;;;;;3.45;1.45;;;;;;;4.97;86.09;101442.22;4991646;28;20104;-50
2021/01/11 00:48:56;;;;;;;3.58;1.13;;;;;;;4.96;86.17;101446.88;4991772;28;20455;-49
2021/01/11 00:51:23;;;;;;;2.67;1.30;;;;;;;4.94;86.50;101438.13;4975973;28;20110;-50
2021/01/11 00:53:49;;;;;;;4.75;1.60;;;;;;;4.92;86.28;101434.88;4972503;28;20125;-48
2021/01/11 00:56:19;;;;;;;3.17;1.25;;;;;;;4.89;86.68;101424.47;4971631;28;20039;-48
2021/01/11 00:58:46;;;;;;;3.60;1.23;;;;;;;4.90;86.58;101423.34;4972496;28;20046;-48
2021/01/11 01:01:16;;;;;;;6.93;1.67;;;;;;;4.87;86.56;101427.47;4991641;28;20086;-48
2021/01/11 01:03:45;;;;;;;;;;;;;;;4.84;87.02;101416.28;4992428;28;20129;-47
2021/01/11 01:06:12;;;;;;;9.95;3.83;;;;;;;4.82;86.56;101408.34;4991463;28;19932;-48
2021/01/11 01:08:39;;;;;;;3.72;1.50;;;;;;;4.82;86.48;101415.75;4991533;28;20046;-48
2021/01/11 01:11:05;;;;;;;1.52;1.25;;;;;;;4.82;87.03;101407.50;5007646;28;20487;-49
2021/01/11 01:13:31;;;;;;;3.28;1.63;;;;;;;4.81;86.82;101411.38;4993912;28;20083;-52
2021/01/11 01:15:58;;;;;;;3.88;1.27;;;;;;;4.77;87.03;101399.34;5003517;28;20393;-51
2021/01/11 01:18:24;;;;;;;10.85;2.08;;;;;;;4.75;86.92;101401.56;4991266;28;20049;-47
2021/01/11 01:20:51;;;;;;;4.82;1.70;;;;;;;4.76;86.89;101392.22;4990729;28;20393;-49
2021/01/11 01:23:17;;;;;;;2.83;1.70;;;;;;;4.72;87.32;101391.16;4991893;28;20050;-48
2021/01/11 01:25:44;;;;;;;3.80;1.75;;;;;;;4.72;87.08;101391.16;4991826;28;20043;-48
2021/01/11 01:28:10;;;;;;;6.18;1.50;;;;;;;4.72;87.24;101391.16;4991385;28;20070;-49
2021/01/11 01:30:36;;;;;;;5.75;1.50;;;;;;;4.71;87.28;101398.56;4990397;28;20109;-49
2021/01/11 01:33:03;;;;;;;6.97;2.28;;;;;;;4.70;87.29;101383.25;4990574;28;20128;-53
2021/01/11 01:35:29;;;;;;;4.43;1.70;;;;;;;4.74;87.39;101389.78;4991233;28;20034;-52
2021/01/11 01:37:57;;;;;;;5.47;1.65;;;;;;;4.74;87.09;101378.78;4991714;28;20451;-50
2021/01/11 01:40:24;;;;;;;7.75;1.95;;;;;;;4.76;87.45;101381.25;4995289;28;20046;-50
2021/01/11 01:42:52;;;;;;;4.63;1.77;;;;;;;4.77;87.36;101383.72;4995214;28;20042;-49
2021/01/11 01:45:19;;;;;;;3.58;1.13;;;;;;;4.79;87.41;101381.47;4977577;28;20086;-51
2021/01/11 01:47:47;;;;;;;4.68;1.35;;;;;;;4.79;87.35;101369.72;4995031;28;20453;-49
2021/01/11 01:50:13;;;;;;;9.20;1.70;;;;;;;4.79;87.57;101375.19;4994494;28;20045;-48
2021/01/11 01:52:42;;;;;;;5.90;2.17;;;;;;;4.80;87.65;101365.84;4994809;28;20046;-49
2021/01/11 01:55:12;;;;;;;5.93;1.73;;;;;;;4.76;87.86;101378.53;4993793;28;20496;-48
2021/01/11 01:57:40;;;;;;;5.13;2.20;;;;;;;4.74;88.31;101367.00;4993534;28;20054;-47
2021/01/11 02:00:11;;;;;;;3.50;2.63;;;;;;;4.74;88.12;101361.50;4998054;28;20552;-52
2021/01/11 02:02:37;;;;;;;4.95;3.03;;;;;;;4.73;88.27;101370.88;4995057;28;20105;-47
2021/01/11 02:05:08;;;;;;;6.95;2.45;;;;;;;4.73;88.04;101349.75;4993791;28;20038;-47
2021/01/11 02:07:55;;;;;;;4.72;2.00;;;;;;;4.73;88.42;101359.91;4994770;28;20074;-50
2021/01/11 02:10:57;;;;;;;12.43;3.80;;;;;;;4.74;88.49;101356.03;5013977;28;20049;-48
2021/01/11 02:13:26;;;;;;;6.32;2.10;;;;;;;4.73;88.38;101351.66;5010844;28;20038;-46
2021/01/11 02:16:20;;;;;;;7.70;2.63;;;;;;;4.74;88.91;101350.53;4994210;28;20084;-49
2021/01/11 02:19:05;;;;;;;5.75;1.83;;;;;;;4.74;88.73;101337.66;4994407;28;20117;-51
2021/01/11 02:21:50;;;;;;;7.43;1.40;;;;;;;4.73;88.53;101330.56;4993943;28;20046;-49
2021/01/11 02:24:25;;;;;;;8.52;1.58;;;;;;;4.73;88.35;101326.97;4993791;28;20050;-48
2021/01/11 02:27:17;;;;;;;6.53;1.80;;;;;;;4.75;88.37;101331.06;4994536;28;20108;-51
2021/01/11 02:30:07;;;;;;;3.35;1.55;;;;;;;4.77;88.52;101347.22;4994613;28;20133;-47
2021/01/11 02:32:35;;;;;;;6.78;1.90;;;;;;;4.80;88.01;101335.66;4994375;28;20128;-50
2021/01/11 02:35:05;;;;;;;8.00;1.88;;;;;;;4.81;88.08;101329.09;4993549;28;20816;-48
2021/01/11 02:37:32;;;;;;;5.55;1.77;;;;;;;4.84;87.82;101334.00;4994252;28;20038;-49
2021/01/11 02:39:59;;;;;;;2.90;1.60;;;;;;;4.85;88.10;101333.69;4994075;28;20050;-48
2021/01/11 02:42:25;;;;;;;2.85;1.33;;;;;;;4.85;87.61;101330.94;4994174;28;20046;-48
2021/01/11 02:44:51;;;;;;;3.65;1.33;;;;;;;4.86;87.86;101329.84;4994254;28;20038;-50
2021/01/11 02:47:26;;;;;;;8.88;1.60;;;;;;;4.88;87.82;101318.56;4993654;28;20373;-48
2021/01/11 02:49:57;;;;;;;5.47;1.38;;;;;;;4.90;87.85;101319.91;4992060;28;20054;-51
2021/01/11 02:52:37;;;;;;;9.38;2.75;;;;;;;4.89;87.72;101317.47;4993436;28;20117;-49
2021/01/11 02:55:11;;;;;;;2.63;1.00;;;;;;;4.89;87.81;101312.81;4994084;28;20128;-47
2021/01/11 02:57:59;;;;;;;5.32;1.60;;;;;;;4.90;88.02;101305.38;4992982;28;20496;-50
2021/01/11 03:00:25;;;;;;;6.45;1.50;;;;;;;4.93;87.77;101299.28;4993416;28;20381;-48
2021/01/11 03:02:52;;;;;;;6.53;1.42;;;;;;;4.90;88.01;101306.19;4994008;28;20076;-47
2021/01/11 03:05:19;;;;;;;4.85;1.50;;;;;;;4.92;87.88;101297.69;4993245;28;20042;-47
2021/01/11 03:07:56;;;;;;;3.70;1.20;;;;;;;4.91;87.86;101302.34;4993450;28;20080;-50
2021/01/11 03:10:23;;;;;;;7.50;1.60;;;;;;;4.93;87.85;101294.63;5003893;28;20144;-48
2021/01/11 03:12:49;;;;;;;7.38;1.95;;;;;;;4.95;87.68;101290.78;5012755;28;20053;-50
2021/01/11 03:15:16;;;;;;;7.28;1.67;;;;;;;4.93;87.91;101299.28;5002654;28;20058;-47
2021/01/11 03:17:44;;;;;;;7.95;2.33;;;;;;;4.93;88.04;101293.81;4993292;28;20555;-48
2021/01/11 03:20:12;;;;;;;5.13;1.58;;;;;;;4.93;87.98;101288.31;4993067;28;20120;-50
2021/01/11 03:22:39;;;;;;;5.47;1.48;;;;;;;4.92;88.03;101292.19;4992197;28;20129;-48
2021/01/11 03:25:07;;;;;;;6.47;1.45;;;;;;;4.92;87.93;101297.69;4992977;28;20101;-48
2021/01/11 03:27:33;;;;;;;3.38;1.08;;;;;;;4.93;87.80;101293.81;4975828;28;20077;-48
2021/01/11 03:30:00;;;;;;;2.80;1.10;;;;;;;4.94;87.87;101295.44;4992998;28;20050;-48
2021/01/11 03:32:26;;;;;;;2.00;0.93;;;;;;;4.96;87.72;101293.22;4993042;28;20089;-47
2021/01/11 03:34:53;;;;;;;3.75;1.80;;;;;;;4.97;88.03;101297.63;4992152;28;20492;-48
2021/01/11 03:37:19;;;;;;;7.18;1.85;;;;;;;4.97;88.12;101299.53;4992494;28;20038;-50
2021/01/11 03:39:45;;;;;;;6.50;1.60;;;;;;;4.98;88.09;101295.69;4993022;28;20492;-52
2021/01/11 03:42:12;;;;;;;5.10;1.27;;;;;;;4.97;88.07;101289.38;4992788;28;20046;-52
2021/01/11 03:44:38;;;;;;;4.50;1.52;;;;;;;4.96;88.36;101287.72;4992921;28;20082;-51
2021/01/11 03:47:04;;;;;;;3.85;1.17;;;;;;;4.98;88.04;101293.75;4993141;28;20050;-50
2021/01/11 03:49:31;;;;;;;4.28;1.08;;;;;;;4.96;88.09;101282.25;4992745;28;20450;-49
2021/01/11 03:52:01;;;;;;;5.47;1.38;;;;;;;4.96;88.22;101275.94;4992085;28;20141;-47
2021/01/11 03:54:28;;;;;;;4.57;1.17;;;;;;;4.96;87.89;101271.28;4992888;28;20085;-48
2021/01/11 03:56:55;;;;;;;3.25;1.23;;;;;;;4.97;88.09;101266.59;4991779;28;20141;-48
2021/01/11 03:59:22;;;;;;;2.95;1.30;;;;;;;4.97;88.18;101259.19;4992288;28;20046;-48
2021/01/11 04:01:48;;;;;;;3.45;1.20;;;;;;;4.98;88.46;101254.53;4991953;28;20136;-48
2021/01/11 04:04:15;;;;;;;1.60;1.17;;;;;;;4.98;88.37;101247.09;5012150;28;20048;-48
2021/01/11 04:06:41;;;;;;;4.07;1.20;;;;;;;5.02;88.49;101253.63;4995528;28;20050;-50
2021/01/11 04:09:08;;;;;;;2.17;1.15;;;;;;;5.04;87.93;101237.69;4992668;28;20042;-49
2021/01/11 04:11:34;;;;;;;3.30;0.90;;;;;;;5.06;87.74;101232.72;5011812;28;20552;-48
2021/01/11 04:14:00;;;;;;;4.07;1.27;;;;;;;5.10;87.99;101233.75;5012200;28;20046;-50
2021/01/11 04:16:26;;;;;;;1.60;1.15;;;;;;;5.11;87.72;101226.34;5012335;28;20589;-49
2021/01/11 04:18:53;;;;;;;1.10;0.80;;;;;;;5.13;87.67;101233.16;5011822;28;20049;-51
2021/01/11 04:21:19;;;;;;;4.90;1.63;;;;;;;5.13;87.96;101222.19;4998195;28;20106;-50
2021/01/11 04:23:46;;;;;;;1.48;1.05;;;;;;;5.12;87.85;101198.59;4991982;28;20500;-50
2021/01/11 04:26:12;;;;;;;5.22;1.25;;;;;;;5.14;87.78;101201.03;5011643;28;20092;-47
2021/01/11 04:28:38;;;;;;;4.72;1.30;;;;;;;5.13;87.94;101202.97;5011775;28;20104;-48
2021/01/11 04:31:06;;;;;;;3.83;1.35;;;;;;;5.15;87.70;101202.69;5011897;28;20530;-48
2021/01/11 04:33:33;;;;;;;5.32;1.35;;;;;;;5.15;87.92;101200.75;5001573;28;20046;-49
2021/01/11 04:36:00;;;;;;;2.85;1.17;;;;;;;5.15;87.78;101186.22;4974258;28;20050;-50
2021/01/11 04:38:26;;;;;;;4.53;0.93;;;;;;;5.14;87.85;101196.34;4991876;28;20086;-53
2021/01/11 04:40:59;;;;;;;5.68;1.13;;;;;;;5.14;88.04;101185.38;4991900;28;20043;-48
2021/01/11 04:43:28;;;;;;;1.83;0.68;;;;;;;5.17;87.88;101200.44;4991751;28;20042;-49
2021/01/11 04:45:57;;;;;;;1.88;1.00;;;;;;;5.15;87.84;101186.22;4991944;28;20116;-47
2021/01/11 04:48:23;;;;;;;4.22;1.20;;;;;;;5.15;88.18;101178.78;4992061;28;20130;-48
2021/01/11 04:50:50;;;;;;;3.25;1.05;;;;;;;5.13;88.02;101182.94;4991659;28;20805;-48
2021/01/11 04:53:17;;;;;;;3.25;1.23;;;;;;;5.11;87.94;101183.22;4991635;28;20077;-53
2021/01/11 04:55:45;;;;;;;1.70;1.25;;;;;;;5.13;88.28;101178.28;4992033;28;20130;-47
2021/01/11 04:58:14;;;;;;;2.22;1.00;;;;;;;5.14;87.98;101173.59;4990750;28;20051;-50
2021/01/11 05:00:42;;;;;;;6.13;1.30;;;;;;;5.13;87.93;101172.78;5000458;28;20073;-50
2021/01/11 05:03:10;;;;;;;3.60;1.23;;;;;;;5.15;88.05;101165.06;5011478;28;20052;-48
2021/01/11 05:05:44;;;;;;;3.70;1.20;;;;;;;5.14;88.36;101170.84;5003594;28;20050;-49
2021/01/11 05:08:10;;;;;;;3.22;0.93;;;;;;;5.17;87.97;101156.53;4991688;28;20125;-49
2021/01/11 05:10:39;;;;;;;17.23;3.95;;;;;;;5.18;87.96;101167.22;5004139;28;20400;-50
2021/01/11 05:13:11;;;;;;;3.92;1.13;;;;;;;5.18;87.71;101159.00;5010630;28;20046;-50
2021/01/11 05:15:39;;;;;;;3.22;1.05;;;;;;;5.20;87.70;101156.75;4978307;28;20148;-48
2021/01/11 05:18:16;;;;;;;1.85;1.15;;;;;;;5.22;88.09;101148.19;4994232;28;20034;-51
2021/01/11 05:20:43;;;;;;;3.10;1.08;;;;;;;5.24;87.76;101148.75;4977492;28;20077;-50
2021/01/11 05:23:12;;;;;;;5.22;1.20;;;;;;;5.27;87.55;101146.19;4995042;28;20074;-49
2021/01/11 05:25:40;;;;;;;2.83;1.48;;;;;;;5.30;87.87;101153.00;4978262;28;20049;-49
2021/01/11 05:28:13;;;;;;;2.72;1.25;;;;;;;5.31;87.42;101140.94;4995381;28;20046;-51
2021/01/11 05:30:44;;;;;;;7.90;1.13;;;;;;;5.34;87.33;101134.84;4977430;28;20065;-52
2021/01/11 05:33:24;;;;;;;2.05;1.30;;;;;;;5.36;87.41;101138.91;4995427;28;20125;-52
2021/01/11 05:36:08;;;;;;;3.63;1.30;;;;;;;5.40;87.55;101144.63;4993541;28;20080;-49
2021/01/11 05:38:45;;;;;;;5.38;1.75;;;;;;;5.42;87.15;101142.38;4978884;28;20109;-49
2021/01/11 05:41:13;;;;;;;4.15;2.45;;;;;;;5.45;87.43;101148.06;4995121;28;20062;-51
2021/01/11 05:43:39;;;;;;;2.95;1.42;;;;;;;5.48;87.34;101138.44;4995049;28;20133;-51
2021/01/11 05:46:26;;;;;;;6.72;1.92;;;;;;;5.47;87.10;101134.06;4995357;28;20050;-50
2021/01/11 05:49:09;;;;;;;8.02;1.95;;;;;;;5.48;87.14;101136.50;4994953;28;20519;-50
2021/01/11 05:51:37;;;;;;;4.63;2.40;;;;;;;5.51;86.99;101135.06;4994673;28;20050;-50
2021/01/11 05:54:04;;;;;;;5.13;2.17;;;;;;;5.51;87.27;101124.09;4994637;28;20043;-49
2021/01/11 05:56:53;;;;;;;5.45;1.83;;;;;;;5.51;87.02;101115.84;4994624;28;20041;-50
2021/01/11 05:59:20;;;;;;;7.55;1.65;;;;;;;5.52;86.92;101128.47;4994564;28;20057;-50
2021/01/11 06:01:59;;;;;;;4.80;1.92;;;;;;;5.55;86.83;101122.38;5012553;28;20054;-50
2021/01/11 06:04:27;;;;;;;2.55;1.60;;;;;;;5.57;86.44;101125.63;4993967;28;20106;-48
2021/01/11 06:06:55;;;;;;;4.88;2.00;;;;;;;5.60;86.60;101124.22;4993889;28;20133;-51
2021/01/11 06:09:22;;;;;;;2.75;1.92;;;;;;;5.60;86.67;101122.28;4996610;28;20050;-52
2021/01/11 06:11:50;;;;;;;3.78;1.70;;;;;;;5.61;86.54;101120.34;4988353;28;20050;-52
2021/01/11 06:14:19;;;;;;;3.92;2.40;;;;;;;5.60;86.64;101122.28;4994599;28;20042;-47
2021/01/11 06:16:45;;;;;;;4.05;2.00;;;;;;;5.61;86.84;101114.88;4994415;28;20134;-53
2021/01/11 06:19:11;;;;;;;4.35;1.90;;;;;;;5.61;86.58;101106.63;4994628;28;20053;-50
2021/01/11 06:21:49;;;;;;;6.32;1.85;;;;;;;5.63;86.95;101115.38;4993981;28;20046;-53
2021/01/11 06:24:19;;;;;;;5.82;2.15;;;;;;;5.63;86.50;101105.19;4993889;28;20074;-49
2021/01/11 06:26:46;;;;;;;4.40;2.08;;;;;;;5.63;86.65;101101.63;4976795;28;20062;-50
2021/01/11 06:29:32;;;;;;;3.85;1.85;;;;;;;5.62;86.84;101113.72;4993148;28;20773;-51
2021/01/11 06:32:21;;;;;;;7.40;2.63;;;;;;;5.61;86.76;101112.94;4994426;28;20073;-51
2021/01/11 06:34:48;;;;;;;5.72;2.17;;;;;;;5.62;87.08;101119.22;4992690;28;20396;-51
2021/01/11 06:37:21;;;;;;;4.20;1.50;;;;;;;5.63;86.94;101120.88;4994111;28;20050;-48
2021/01/11 06:39:48;;;;;;;3.30;1.80;;;;;;;5.63;87.00;101126.34;4993626;28;20050;-50
2021/01/11 06:42:15;;;;;;;6.28;1.77;;;;;;;5.64;86.85;101117.81;4993851;28;20054;-48
2021/01/11 06:44:48;;;;;;;4.50;1.83;;;;;;;5.63;87.07;101120.88;4993120;28;20411;-49
2021/01/11 06:47:41;;;;;;;5.35;1.92;;;;;;;5.63;86.64;101104.38;4994126;28;20464;-49
2021/01/11 06:50:09;;;;;;;3.95;1.48;;;;;;;5.64;86.51;101114.25;4991625;28;20058;-51
2021/01/11 06:52:37;;;;;;;2.22;1.38;;;;;;;5.64;87.13;101117.00;4993816;28;20046;-53
2021/01/11 06:55:14;;;;;;;3.58;1.38;;;;;;;5.64;86.79;101117.00;4993907;28;20046;-53
2021/01/11 06:57:47;;;;;;;3.83;1.55;;;;;;;5.66;86.64;101125.75;4974251;28;20035;-52
2021/01/11 07:00:19;;;;;;;2.97;1.67;;;;;;;5.66;86.49;101128.50;4982700;28;20038;-50
2021/01/11 07:02:48;;;;;;;3.83;1.63;;;;;;;5.66;86.69;101120.25;5012201;28;20056;-50
2021/01/11 07:05:33;;;;;;;2.75;1.40;;;;;;;5.65;86.33;101116.69;4991418;28;20042;-52
2021/01/11 07:08:03;;;;;;;6.93;2.15;;;;;;;5.66;86.49;101115.59;4993151;28;20034;-50
2021/01/11 07:10:30;;;;;;;4.32;1.42;;;;;;;5.66;86.58;101090.03;5004834;28;20034;-50
2021/01/11 07:13:19;;;;;;;6.65;1.83;;;;;;;5.65;86.56;101081.00;5005948;28;20054;-52
2021/01/11 07:16:05;;;;;;;3.63;1.75;;;;;;;5.65;86.48;101082.91;4988180;28;20511;-50
2021/01/11 07:18:38;;;;;;;5.93;1.73;;;;;;;5.66;86.31;101076.31;4993176;28;20050;-48
2021/01/11 07:21:25;;;;;;;4.28;1.55;;;;;;;5.66;86.37;101070.81;4993336;28;20052;-50
2021/01/11 07:23:55;;;;;;;8.38;2.00;;;;;;;5.66;86.59;101068.91;4993280;28;20050;-50
2021/01/11 07:26:27;;;;;;;2.65;1.35;;;;;;;5.68;86.54;101079.56;4993436;28;20451;-52
2021/01/11 07:29:07;;;;;;;8.63;2.30;;;;;;;5.67;86.58;101075.19;4992870;28;20042;-52
2021/01/11 07:31:43;;;;;;;3.20;1.90;;;;;;;5.70;86.30;101077.31;4973798;28;20046;-49
2021/01/11 07:34:17;;;;;;;4.43;1.33;;;;;;;5.70;86.32;101071.81;4973750;28;20065;-49
2021/01/11 07:36:48;;;;;;;2.50;1.58;;;;;;;5.73;86.31;101054.75;4985198;28;20081;-48
2021/01/11 07:39:25;;;;;;;11.10;2.55;;;;;;;5.71;86.46;101056.97;4993090;28;20097;-53
2021/01/11 07:41:56;;;;;;;4.43;1.50;;;;;;;5.72;86.52;101055.88;4992564;28;20050;-53
2021/01/11 07:44:39;;;;;;;8.30;1.40;;;;;;;5.71;86.69;101062.47;4991810;28;20128;-53
2021/01/11 07:47:07;;;;;;;4.60;2.20;;;;;;;5.74;86.39;101056.38;4992779;28;20042;-52
2021/01/11 07:49:36;;;;;;;3.47;1.27;;;;;;;5.74;86.40;101034.41;4992870;28;20039;-48
2021/01/11 07:52:05;;;;;;;3.50;1.55;;;;;;;5.77;86.59;101034.59;4992037;28;20050;-49
2021/01/11 07:54:32;;;;;;;3.78;1.23;;;;;;;5.79;86.54;101023.31;4992806;28;20050;-54
2021/01/11 07:56:59;;;;;;;4.13;1.10;;;;;;;5.79;86.40;101032.38;4991167;28;20488;-50
2021/01/11 07:59:25;;;;;;;4.55;1.70;;;;;;;5.81;86.36;101045.78;4992327;28;20101;-50
2021/01/11 08:01:52;;;;;;;3.03;1.42;;;;;;;5.82;86.51;101036.44;4997726;28;20054;-51
2021/01/11 08:04:19;;;;;;;4.47;1.70;;;;;;;5.84;86.65;101037.75;4997333;28;20046;-50
2021/01/11 08:06:52;;;;;;;2.35;1.25;;;;;;;5.85;86.48;101019.38;4995196;28;20136;-49
2021/01/11 08:09:29;;;;;;;6.10;1.17;;;;;;;5.85;86.73;101033.91;4996686;28;20038;-48
2021/01/11 08:12:12;;;;;;;6.25;1.77;;;;;;;5.86;86.69;101004.50;4955372;28;20404;-48
2021/01/11 08:14:42;;;;;;;4.70;2.00;;;;;;;5.88;86.71;101013.22;4974631;28;20512;-49
2021/01/11 08:17:16;;;;;;;6.13;1.45;;;;;;;5.88;86.73;101007.75;4983981;28;20087;-53
2021/01/11 08:19:57;;;;;;;3.78;1.10;;;;;;;5.89;86.51;101014.88;4969322;28;20129;-49
2021/01/11 08:22:26;;;;;;;6.15;1.90;;;;;;;5.90;86.73;101022.81;4987532;28;20035;-54
2021/01/11 08:24:57;;;;;;;6.72;2.25;;;;;;;5.92;86.72;100997.78;4979532;28;20080;-49
2021/01/11 08:27:36;;;;;;;7.32;1.25;;;;;;;5.94;86.66;101015.59;4986113;28;20069;-49
2021/01/11 08:30:08;;;;;;;7.10;1.67;;;;;;;5.93;86.43;101008.44;4986874;28;20156;-52
2021/01/11 08:32:35;;;;;;;;;;;;;;;5.92;86.59;100998.59;4985102;28;20070;-50
2021/01/11 08:35:13;;;;;;;11.30;1.88;;;;;;;5.94;86.45;101012.84;4987714;28;19928;-51
2021/01/11 08:37:43;;;;;;;6.35;2.53;;;;;;;5.95;86.50;101003.47;4988701;28;20145;-49
2021/01/11 08:40:17;;;;;;;7.45;1.73;;;;;;;5.96;86.56;101013.34;4985768;28;20062;-51
2021/01/11 08:42:45;;;;;;;22.48;3.63;;;;;;;5.97;86.46;101012.22;4987428;28;20137;-53
2021/01/11 08:45:27;;;;;;;6.32;2.40;;;;;;;5.98;86.23;101004.78;4985600;28;20101;-49
2021/01/11 08:48:07;;;;;;;6.07;2.15;;;;;;;6.00;86.36;101008.03;4967012;28;20447;-49
2021/01/11 08:50:39;;;;;;;12.25;2.63;;;;;;;6.02;86.33;101017.59;4986549;28;20050;-50
2021/01/11 08:53:28;;;;;;;4.75;2.78;;;;;;;6.03;86.28;101016.50;4987200;28;20046;-49
2021/01/11 08:56:02;;;;;;;11.50;3.33;;;;;;;6.04;86.22;101006.28;4988558;28;20062;-50
2021/01/11 08:58:33;;;;;;;9.32;3.60;;;;;;;6.06;85.96;100998.56;4989269;28;20054;-54
2021/01/11 09:01:22;;;;;;;6.22;2.33;;;;;;;6.05;85.99;101005.19;5000730;28;20057;-51
2021/01/11 09:03:50;;;;;;;5.30;3.00;;;;;;;6.08;86.08;100996.31;5009891;28;20045;-49
2021/01/11 09:06:41;;;;;;;6.97;3.03;;;;;;;6.08;86.06;101001.81;5005018;28;20104;-50
2021/01/11 09:09:25;;;;;;;7.15;3.50;;;;;;;6.06;85.89;100996.63;4988415;28;20117;-53
2021/01/11 09:12:01;;;;;;;10.52;3.35;;;;;;;6.09;85.79;100981.44;5002620;28;20046;-49
2021/01/11 09:14:28;;;;;;;9.07;3.40;;;;;;;6.10;86.26;100983.06;4989801;28;20128;-51
2021/01/11 09:17:00;;;;;;;15.45;3.90;;;;;;;6.11;85.81;100976.47;4986910;28;20046;-49
2021/01/11 09:19:27;;;;;;;21.42;4.85;;;;;;;6.12;85.80;100975.31;4988987;28;20050;-51
2021/01/11 09:22:26;;;;;;;8.10;4.00;;;;;;;6.13;85.58;100968.72;4971984;28;20057;-50
2021/01/11 09:24:52;;;;;;;13.43;3.75;;;;;;;6.14;85.71;100964.84;4971840;28;20077;-50
2021/01/11 09:27:24;;;;;;;7.95;4.15;;;;;;;6.15;85.78;100963.72;4989294;28;20133;-47
2021/01/11 09:29:52;;;;;;;11.55;3.92;;;;;;;6.19;85.91;100950.16;4989540;28;20093;-55
2021/01/11 09:32:21;;;;;;;13.45;4.18;;;;;;;6.20;85.96;100963.59;4988412;28;20448;-50
2021/01/11 09:34:48;;;;;;;9.55;4.18;;;;;;;6.23;85.90;100959.41;4989653;28;20074;-51
2021/01/11 09:37:15;;;;;;;10.27;4.05;;;;;;;6.24;85.87;100966.53;4988828;28;20495;-49
2021/01/11 09:39:42;;;;;;;9.52;3.85;;;;;;;6.27;85.74;100960.44;4989502;28;20523;-53
2021/01/11 09:42:09;;;;;;;8.38;3.10;;;;;;;6.29;85.90;100948.00;4989536;28;20179;-49
2021/01/11 09:44:36;;;;;;;8.98;3.45;;;;;;;6.31;85.67;100962.22;4988503;28;20118;-49
2021/01/11 09:47:05;;;;;;;8.35;3.05;;;;;;;6.33;85.79;100937.97;4988991;28;20042;-51
2021/01/11 09:49:34;;;;;;;9.35;3.30;;;;;;;6.35;85.83;100949.50;4989356;28;20049;-52
2021/01/11 09:52:00;;;;;;;15.05;5.05;;;;;;;6.39;85.92;100945.00;4988348;28;20145;-51
2021/01/11 09:54:27;;;;;;;7.22;3.22;;;;;;;6.43;85.75;100942.44;4988033;28;20121;-50
2021/01/11 09:56:57;;;;;;;10.25;3.78;;;;;;;6.46;85.62;100952.81;4972041;28;20085;-48
2021/01/11 09:59:23;;;;;;;6.53;2.67;;;;;;;6.47;85.89;100949.75;4971977;28;20475;-51
2021/01/11 10:01:50;;;;;;;9.90;2.92;;;;;;;6.51;85.75;100961.72;5010275;28;20050;-52
2021/01/11 10:04:20;;;;;;;10.98;2.83;;;;;;;6.51;85.59;100934.22;4993226;28;20097;-52
2021/01/11 10:06:51;;;;;;;6.10;2.67;;;;;;;6.54;85.71;100939.09;4992048;28;20050;-53
2021/01/11 10:09:20;;;;;;;6.35;2.30;;;;;;;6.57;85.85;100921.16;4993890;28;20131;-47
2021/01/11 10:11:49;;;;;;;9.68;2.53;;;;;;;6.60;85.77;100946.09;5011546;28;20045;-50
2021/01/11 10:14:15;;;;;;;6.07;2.88;;;;;;;6.63;85.82;100928.97;4995403;28;20073;-50
2021/01/11 10:16:43;;;;;;;4.25;2.75;;;;;;;6.65;86.02;100929.47;4990935;28;20050;-50
2021/01/11 10:19:13;;;;;;;4.60;2.00;;;;;;;6.68;85.56;100939.84;4991927;28;20054;-50
2021/01/11 10:21:42;;;;;;;7.70;2.75;;;;;;;6.67;85.62;100932.72;4979053;28;20050;-52
2021/01/11 10:24:10;;;;;;;5.43;2.40;;;;;;;6.69;85.78;100919.47;4992026;28;20451;-49
2021/01/11 10:26:40;;;;;;;5.18;2.35;;;;;;;6.71;85.89;100933.72;4992668;28;20057;-54
2021/01/11 10:29:06;;;;;;;5.57;1.98;;;;;;;6.71;85.87;100919.16;4992006;28;20096;-50
2021/01/11 10:31:33;;;;;;;7.65;2.20;;;;;;;6.71;85.70;100919.97;4974159;28;20054;-48
2021/01/11 10:33:59;;;;;;;5.20;1.85;;;;;;;6.75;85.77;100928.41;4992174;28;20062;-54
2021/01/11 10:36:26;;;;;;;5.30;1.85;;;;;;;6.77;86.02;100931.66;4992116;28;20042;-51
2021/01/11 10:38:52;;;;;;;5.57;1.98;;;;;;;6.79;85.72;100921.13;4990980;28;20499;-50
2021/01/11 10:41:20;;;;;;;3.90;2.08;;;;;;;6.81;85.86;100932.63;4991514;28;20073;-52
2021/01/11 10:43:48;;;;;;;6.85;2.47;;;;;;;6.83;85.80;100921.34;4992551;28;20800;-50
2021/01/11 10:46:15;;;;;;;6.25;2.97;;;;;;;6.86;85.77;100926.22;4973729;28;20046;-51
2021/01/11 10:48:44;;;;;;;4.75;2.50;;;;;;;6.88;85.76;100932.19;4991461;28;20077;-52
2021/01/11 10:51:11;;;;;;;4.93;2.08;;;;;;;6.90;85.72;100924.44;4991391;28;20451;-47
2021/01/11 10:53:44;;;;;;;6.80;3.13;;;;;;;6.94;85.67;100937.22;4990846;28;20149;-48
2021/01/11 10:56:13;;;;;;;4.43;2.63;;;;;;;6.97;85.62;100930.28;4991604;28;20045;-51
2021/01/11 10:58:40;;;;;;;4.53;2.25;;;;;;;6.99;85.58;100928.06;4991058;28;20083;-52
2021/01/11 11:01:08;;;;;;;6.15;2.17;;;;;;;7.00;85.68;100926.91;5003619;28;20127;-49
2021/01/11 11:03:35;;;;;;;5.38;2.05;;;;;;;7.02;85.82;100939.22;5011351;28;20054;-51
2021/01/11 11:06:01;;;;;;;4.20;1.92;;;;;;;7.04;85.69;100925.16;5010121;28;20050;-48
2021/01/11 11:08:28;;;;;;;3.28;1.90;;;;;;;7.05;85.74;100911.06;5010596;28;20045;-53
2021/01/11 11:10:54;;;;;;;3.67;2.03;;;;;;;7.06;85.68;100912.69;4986399;28;20038;-49
2021/01/11 11:13:20;;;;;;;3.83;1.70;;;;;;;7.10;85.51;100912.84;4974436;28;20129;-50
2021/01/11 11:15:47;;;;;;;3.50;1.70;;;;;;;7.11;85.70;100914.50;4988588;28;20198;-50
2021/01/11 11:18:14;;;;;;;3.58;1.70;;;;;;;7.13;85.63;100917.72;4990921;28;20540;-52
2021/01/11 11:20:44;;;;;;;3.95;1.85;;;;;;;7.15;85.64;100915.47;4992073;28;20100;-52
2021/01/11 11:23:10;;;;;;;4.28;2.13;;;;;;;7.17;85.56;100893.94;4990088;28;20089;-48
2021/01/11 11:25:37;;;;;;;2.40;1.40;;;;;;;7.22;85.60;100899.31;4991272;28;20472;-48
2021/01/11 11:28:03;;;;;;;4.05;1.77;;;;;;;7.25;85.57;100893.16;4991040;28;20050;-48
2021/01/11 11:30:35;;;;;;;4.47;2.35;;;;;;;7.27;85.56;100888.16;4990394;28;20046;-48
2021/01/11 11:33:01;;;;;;;4.00;1.52;;;;;;;7.30;85.56;100896.59;4990876;28;20050;-49
2021/01/11 11:35:29;;;;;;;4.43;2.05;;;;;;;7.33;85.46;100895.13;4991102;28;20133;-53
2021/01/11 11:37:56;;;;;;;3.58;2.22;;;;;;;7.37;85.60;100885.09;4993787;28;20042;-49
2021/01/11 11:40:23;;;;;;;4.45;1.77;;;;;;;7.40;85.59;100881.69;4990903;28;20097;-48
2021/01/11 11:43:09;;;;;;;3.22;1.73;;;;;;;7.44;85.43;100868.91;4975942;28;20060;-51
2021/01/11 11:45:36;;;;;;;4.35;1.88;;;;;;;7.49;85.55;100868.78;4990604;28;20400;-48
2021/01/11 11:48:03;;;;;;;3.95;1.55;;;;;;;7.54;85.52;100870.56;4990742;28;20397;-51